sensor_id;sensor_type;location;lat;lon;timestamp;P1;durP1;ratioP1;P2;durP2;ratioP2
15516;SDS011;7860;52.030;5.572;2022-12-07T00:03:01;15.03;;;7.87;;
15516;SDS011;7860;52.030;5.572;2022-12-07T00:03:01;16.50;;;7.81;;
15516;SDS011;7860;52.030;5.572;2022-12-07T00:03:01;13.13;;;7.94;;
15516;SDS011;7860;52.030;5.572;2022-12-07T00:03:26;18.10;;;7.99;;
15516;SDS011;7860;52.030;5.572;2022-12-07T00:04:27;14.90;;;8.19;;
15516;SDS011;7860;52.030;5.572;2022-12-07T00:05:27;15.36;;;7.94;;
15516;SDS011;7860;52.030;5.572;2022-12-07T00:06:28;16.27;;;7.79;;
15516;SDS011;7860;52.030;5.572;2022-12-07T00:07:28;15.44;;;8.22;;
15516;SDS011;7860;52.030;5.572;2022-12-07T00:08:29;14.72;;;8.00;;
15516;SDS011;7860;52.030;5.572;2022-12-07T00:09:29;19.18;;;8.42;;
15516;SDS011;7860;52.030;5.572;2022-12-07T00:10:30;16.39;;;8.18;;
15516;SDS011;7860;52.030;5.572;2022-12-07T00:11:31;17.69;;;8.57;;
15516;SDS011;7860;52.030;5.572;2022-12-07T00:12:31;17.73;;;8.62;;
15516;SDS011;7860;52.030;5.572;2022-12-07T00:13:32;16.42;;;8.33;;
15516;SDS011;7860;52.030;5.572;2022-12-07T00:14:33;21.18;;;8.73;;
15516;SDS011;7860;52.030;5.572;2022-12-07T00:15:33;18.03;;;8.03;;
15516;SDS011;7860;52.030;5.572;2022-12-07T00:16:34;16.29;;;8.47;;
15516;SDS011;7860;52.030;5.572;2022-12-07T00:17:34;14.59;;;8.02;;
15516;SDS011;7860;52.030;5.572;2022-12-07T00:18:35;14.09;;;8.10;;
15516;SDS011;7860;52.030;5.572;2022-12-07T00:19:36;16.06;;;8.04;;
15516;SDS011;7860;52.030;5.572;2022-12-07T00:20:37;15.80;;;7.79;;
15516;SDS011;7860;52.030;5.572;2022-12-07T00:21:37;15.57;;;7.96;;
15516;SDS011;7860;52.030;5.572;2022-12-07T00:22:38;16.56;;;7.89;;
15516;SDS011;7860;52.030;5.572;2022-12-07T00:23:39;14.88;;;7.61;;
15516;SDS011;7860;52.030;5.572;2022-12-07T00:24:40;16.38;;;8.12;;
15516;SDS011;7860;52.030;5.572;2022-12-07T00:25:40;14.60;;;7.67;;
15516;SDS011;7860;52.030;5.572;2022-12-07T00:26:41;15.16;;;7.60;;
15516;SDS011;7860;52.030;5.572;2022-12-07T00:27:41;15.90;;;7.99;;
15516;SDS011;7860;52.030;5.572;2022-12-07T00:28:44;15.18;;;7.61;;
15516;SDS011;7860;52.030;5.572;2022-12-07T00:29:43;17.58;;;7.91;;
15516;SDS011;7860;52.030;5.572;2022-12-07T00:30:43;15.32;;;7.76;;
15516;SDS011;7860;52.030;5.572;2022-12-07T00:31:44;16.50;;;7.48;;
15516;SDS011;7860;52.030;5.572;2022-12-07T00:32:44;14.99;;;7.74;;
15516;SDS011;7860;52.030;5.572;2022-12-07T00:33:45;13.69;;;6.92;;
15516;SDS011;7860;52.030;5.572;2022-12-07T00:34:45;15.33;;;7.41;;
15516;SDS011;7860;52.030;5.572;2022-12-07T00:35:45;13.28;;;7.10;;
15516;SDS011;7860;52.030;5.572;2022-12-07T00:36:47;14.58;;;8.11;;
15516;SDS011;7860;52.030;5.572;2022-12-07T00:37:47;16.26;;;7.11;;
15516;SDS011;7860;52.030;5.572;2022-12-07T00:38:47;13.51;;;7.02;;
15516;SDS011;7860;52.030;5.572;2022-12-07T00:39:48;19.18;;;7.90;;
15516;SDS011;7860;52.030;5.572;2022-12-07T00:40:53;15.92;;;7.57;;
15516;SDS011;7860;52.030;5.572;2022-12-07T00:41:49;15.44;;;7.82;;
15516;SDS011;7860;52.030;5.572;2022-12-07T00:42:49;14.05;;;7.40;;
15516;SDS011;7860;52.030;5.572;2022-12-07T00:43:50;14.42;;;7.04;;
15516;SDS011;7860;52.030;5.572;2022-12-07T00:44:50;12.40;;;6.67;;
15516;SDS011;7860;52.030;5.572;2022-12-07T00:45:51;14.50;;;7.00;;
15516;SDS011;7860;52.030;5.572;2022-12-07T00:46:52;16.66;;;7.75;;
15516;SDS011;7860;52.030;5.572;2022-12-07T00:47:52;15.91;;;7.51;;
15516;SDS011;7860;52.030;5.572;2022-12-07T00:48:53;16.98;;;7.34;;
15516;SDS011;7860;52.030;5.572;2022-12-07T00:49:54;16.80;;;7.63;;
15516;SDS011;7860;52.030;5.572;2022-12-07T00:50:54;19.51;;;7.26;;
15516;SDS011;7860;52.030;5.572;2022-12-07T00:51:55;14.32;;;7.49;;
15516;SDS011;7860;52.030;5.572;2022-12-07T00:52:56;15.54;;;7.14;;
15516;SDS011;7860;52.030;5.572;2022-12-07T00:53:56;18.56;;;7.53;;
15516;SDS011;7860;52.030;5.572;2022-12-07T00:54:56;15.71;;;7.51;;
15516;SDS011;7860;52.030;5.572;2022-12-07T00:55:57;15.38;;;7.66;;
15516;SDS011;7860;52.030;5.572;2022-12-07T00:56:58;15.90;;;7.53;;
15516;SDS011;7860;52.030;5.572;2022-12-07T00:57:58;16.22;;;7.53;;
15516;SDS011;7860;52.030;5.572;2022-12-07T00:59:00;15.90;;;6.90;;
15516;SDS011;7860;52.030;5.572;2022-12-07T01:00:00;16.47;;;6.90;;
15516;SDS011;7860;52.030;5.572;2022-12-07T01:01:00;15.34;;;7.03;;
15516;SDS011;7860;52.030;5.572;2022-12-07T01:02:01;13.36;;;6.85;;
15516;SDS011;7860;52.030;5.572;2022-12-07T01:03:02;15.72;;;7.06;;
15516;SDS011;7860;52.030;5.572;2022-12-07T01:04:03;14.56;;;6.67;;
15516;SDS011;7860;52.030;5.572;2022-12-07T01:05:04;14.56;;;6.70;;
15516;SDS011;7860;52.030;5.572;2022-12-07T01:06:04;16.45;;;6.98;;
15516;SDS011;7860;52.030;5.572;2022-12-07T01:07:05;17.26;;;7.04;;
15516;SDS011;7860;52.030;5.572;2022-12-07T01:08:05;17.23;;;6.83;;
15516;SDS011;7860;52.030;5.572;2022-12-07T01:09:06;13.72;;;6.46;;
15516;SDS011;7860;52.030;5.572;2022-12-07T01:10:06;15.38;;;7.12;;
15516;SDS011;7860;52.030;5.572;2022-12-07T01:11:07;17.88;;;7.03;;
15516;SDS011;7860;52.030;5.572;2022-12-07T01:12:07;17.32;;;7.09;;
15516;SDS011;7860;52.030;5.572;2022-12-07T01:13:08;15.44;;;7.34;;
15516;SDS011;7860;52.030;5.572;2022-12-07T01:14:09;16.42;;;6.83;;
15516;SDS011;7860;52.030;5.572;2022-12-07T01:15:10;14.24;;;6.39;;
15516;SDS011;7860;52.030;5.572;2022-12-07T01:16:11;14.03;;;7.12;;
15516;SDS011;7860;52.030;5.572;2022-12-07T01:17:11;17.15;;;6.93;;
15516;SDS011;7860;52.030;5.572;2022-12-07T01:18:11;17.60;;;7.25;;
15516;SDS011;7860;52.030;5.572;2022-12-07T01:19:12;18.44;;;7.10;;
15516;SDS011;7860;52.030;5.572;2022-12-07T01:20:13;17.48;;;7.29;;
15516;SDS011;7860;52.030;5.572;2022-12-07T01:21:14;17.15;;;7.00;;
15516;SDS011;7860;52.030;5.572;2022-12-07T01:22:14;12.58;;;6.63;;
15516;SDS011;7860;52.030;5.572;2022-12-07T01:23:14;14.77;;;6.80;;
15516;SDS011;7860;52.030;5.572;2022-12-07T01:24:15;14.73;;;7.15;;
15516;SDS011;7860;52.030;5.572;2022-12-07T01:25:15;16.50;;;7.43;;
15516;SDS011;7860;52.030;5.572;2022-12-07T01:26:17;18.02;;;7.03;;
15516;SDS011;7860;52.030;5.572;2022-12-07T01:27:17;17.31;;;7.09;;
15516;SDS011;7860;52.030;5.572;2022-12-07T01:28:17;16.12;;;7.05;;
15516;SDS011;7860;52.030;5.572;2022-12-07T01:29:18;16.76;;;7.21;;
15516;SDS011;7860;52.030;5.572;2022-12-07T01:30:19;15.35;;;7.14;;
15516;SDS011;7860;52.030;5.572;2022-12-07T01:31:19;14.22;;;7.28;;
15516;SDS011;7860;52.030;5.572;2022-12-07T01:32:20;16.33;;;7.06;;
15516;SDS011;7860;52.030;5.572;2022-12-07T01:33:20;16.47;;;6.73;;
15516;SDS011;7860;52.030;5.572;2022-12-07T01:34:21;15.44;;;6.71;;
15516;SDS011;7860;52.030;5.572;2022-12-07T01:35:21;16.01;;;6.74;;
15516;SDS011;7860;52.030;5.572;2022-12-07T01:36:22;14.42;;;6.94;;
15516;SDS011;7860;52.030;5.572;2022-12-07T01:37:22;15.62;;;6.94;;
15516;SDS011;7860;52.030;5.572;2022-12-07T01:38:22;13.19;;;7.00;;
15516;SDS011;7860;52.030;5.572;2022-12-07T01:39:23;18.45;;;7.08;;
15516;SDS011;7860;52.030;5.572;2022-12-07T01:40:24;15.00;;;6.79;;
15516;SDS011;7860;52.030;5.572;2022-12-07T01:41:26;14.94;;;6.47;;
15516;SDS011;7860;52.030;5.572;2022-12-07T01:42:25;16.98;;;6.90;;
15516;SDS011;7860;52.030;5.572;2022-12-07T01:43:27;17.10;;;6.74;;
15516;SDS011;7860;52.030;5.572;2022-12-07T01:44:27;16.12;;;6.85;;
15516;SDS011;7860;52.030;5.572;2022-12-07T01:46:28;13.53;;;6.42;;
15516;SDS011;7860;52.030;5.572;2022-12-07T01:47:28;14.61;;;6.58;;
15516;SDS011;7860;52.030;5.572;2022-12-07T01:48:30;14.06;;;6.95;;
15516;SDS011;7860;52.030;5.572;2022-12-07T01:49:31;14.27;;;6.53;;
15516;SDS011;7860;52.030;5.572;2022-12-07T01:50:30;15.71;;;6.57;;
15516;SDS011;7860;52.030;5.572;2022-12-07T01:51:31;14.30;;;6.26;;
15516;SDS011;7860;52.030;5.572;2022-12-07T01:52:31;14.26;;;6.40;;
15516;SDS011;7860;52.030;5.572;2022-12-07T01:53:32;11.75;;;6.11;;
15516;SDS011;7860;52.030;5.572;2022-12-07T01:54:33;17.31;;;6.14;;
15516;SDS011;7860;52.030;5.572;2022-12-07T01:55:33;15.04;;;6.35;;
15516;SDS011;7860;52.030;5.572;2022-12-07T01:56:33;16.01;;;6.48;;
15516;SDS011;7860;52.030;5.572;2022-12-07T01:57:34;14.12;;;6.29;;
15516;SDS011;7860;52.030;5.572;2022-12-07T01:58:34;14.85;;;6.17;;
15516;SDS011;7860;52.030;5.572;2022-12-07T01:59:34;14.86;;;6.23;;
15516;SDS011;7860;52.030;5.572;2022-12-07T02:00:35;15.23;;;6.24;;
15516;SDS011;7860;52.030;5.572;2022-12-07T02:01:36;16.10;;;5.69;;
15516;SDS011;7860;52.030;5.572;2022-12-07T02:02:37;13.94;;;6.08;;
15516;SDS011;7860;52.030;5.572;2022-12-07T02:03:38;13.53;;;5.69;;
15516;SDS011;7860;52.030;5.572;2022-12-07T02:04:37;16.01;;;6.10;;
15516;SDS011;7860;52.030;5.572;2022-12-07T02:05:38;14.98;;;5.45;;
15516;SDS011;7860;52.030;5.572;2022-12-07T02:06:38;13.62;;;6.02;;
15516;SDS011;7860;52.030;5.572;2022-12-07T02:07:38;14.88;;;6.39;;
15516;SDS011;7860;52.030;5.572;2022-12-07T02:08:39;12.84;;;5.78;;
15516;SDS011;7860;52.030;5.572;2022-12-07T02:09:39;15.82;;;6.13;;
15516;SDS011;7860;52.030;5.572;2022-12-07T02:10:40;14.14;;;6.02;;
15516;SDS011;7860;52.030;5.572;2022-12-07T02:11:41;12.60;;;5.85;;
15516;SDS011;7860;52.030;5.572;2022-12-07T02:12:42;14.40;;;5.68;;
15516;SDS011;7860;52.030;5.572;2022-12-07T02:13:42;13.62;;;5.88;;
15516;SDS011;7860;52.030;5.572;2022-12-07T02:14:43;13.84;;;6.11;;
15516;SDS011;7860;52.030;5.572;2022-12-07T02:15:46;16.97;;;6.14;;
15516;SDS011;7860;52.030;5.572;2022-12-07T02:16:47;14.49;;;5.83;;
15516;SDS011;7860;52.030;5.572;2022-12-07T02:17:46;15.36;;;5.88;;
15516;SDS011;7860;52.030;5.572;2022-12-07T02:18:48;12.83;;;5.40;;
15516;SDS011;7860;52.030;5.572;2022-12-07T02:19:53;15.53;;;6.02;;
15516;SDS011;7860;52.030;5.572;2022-12-07T02:20:49;12.39;;;5.93;;
15516;SDS011;7860;52.030;5.572;2022-12-07T02:21:48;12.97;;;5.68;;
15516;SDS011;7860;52.030;5.572;2022-12-07T02:22:54;15.34;;;6.15;;
15516;SDS011;7860;52.030;5.572;2022-12-07T02:23:56;15.64;;;6.22;;
15516;SDS011;7860;52.030;5.572;2022-12-07T02:24:53;13.54;;;5.76;;
15516;SDS011;7860;52.030;5.572;2022-12-07T02:25:55;15.57;;;5.90;;
15516;SDS011;7860;52.030;5.572;2022-12-07T02:26:55;15.54;;;6.29;;
15516;SDS011;7860;52.030;5.572;2022-12-07T02:27:52;15.38;;;5.51;;
15516;SDS011;7860;52.030;5.572;2022-12-07T02:28:56;12.46;;;5.55;;
15516;SDS011;7860;52.030;5.572;2022-12-07T02:29:54;13.92;;;5.90;;
15516;SDS011;7860;52.030;5.572;2022-12-07T02:30:54;15.33;;;5.84;;
15516;SDS011;7860;52.030;5.572;2022-12-07T02:31:56;15.13;;;5.96;;
15516;SDS011;7860;52.030;5.572;2022-12-07T02:32:55;15.37;;;5.90;;
15516;SDS011;7860;52.030;5.572;2022-12-07T02:33:57;13.83;;;5.43;;
15516;SDS011;7860;52.030;5.572;2022-12-07T02:34:57;13.78;;;5.59;;
15516;SDS011;7860;52.030;5.572;2022-12-07T02:35:57;15.84;;;5.67;;
15516;SDS011;7860;52.030;5.572;2022-12-07T02:37:00;16.29;;;5.78;;
15516;SDS011;7860;52.030;5.572;2022-12-07T02:37:59;15.63;;;5.40;;
15516;SDS011;7860;52.030;5.572;2022-12-07T02:38:58;14.72;;;5.43;;
15516;SDS011;7860;52.030;5.572;2022-12-07T02:39:59;12.73;;;5.23;;
15516;SDS011;7860;52.030;5.572;2022-12-07T02:41:00;14.37;;;5.82;;
15516;SDS011;7860;52.030;5.572;2022-12-07T02:42:00;10.56;;;4.93;;
15516;SDS011;7860;52.030;5.572;2022-12-07T02:43:02;13.44;;;5.52;;
15516;SDS011;7860;52.030;5.572;2022-12-07T02:44:01;14.22;;;5.24;;
15516;SDS011;7860;52.030;5.572;2022-12-07T02:45:02;12.57;;;5.12;;
15516;SDS011;7860;52.030;5.572;2022-12-07T02:46:02;12.11;;;5.11;;
15516;SDS011;7860;52.030;5.572;2022-12-07T02:47:03;17.02;;;5.38;;
15516;SDS011;7860;52.030;5.572;2022-12-07T02:48:02;12.76;;;5.16;;
15516;SDS011;7860;52.030;5.572;2022-12-07T02:49:03;14.54;;;5.20;;
15516;SDS011;7860;52.030;5.572;2022-12-07T02:50:03;12.88;;;4.86;;
15516;SDS011;7860;52.030;5.572;2022-12-07T02:51:04;15.51;;;4.94;;
15516;SDS011;7860;52.030;5.572;2022-12-07T02:52:05;15.13;;;5.05;;
15516;SDS011;7860;52.030;5.572;2022-12-07T02:53:27;15.23;;;5.08;;
15516;SDS011;7860;52.030;5.572;2022-12-07T02:54:09;13.30;;;4.75;;
15516;SDS011;7860;52.030;5.572;2022-12-07T02:55:07;11.19;;;4.46;;
15516;SDS011;7860;52.030;5.572;2022-12-07T02:56:09;14.95;;;5.16;;
15516;SDS011;7860;52.030;5.572;2022-12-07T02:57:14;12.65;;;4.73;;
15516;SDS011;7860;52.030;5.572;2022-12-07T02:58:14;12.35;;;4.55;;
15516;SDS011;7860;52.030;5.572;2022-12-07T02:59:12;11.47;;;4.44;;
15516;SDS011;7860;52.030;5.572;2022-12-07T03:00:11;14.83;;;4.37;;
15516;SDS011;7860;52.030;5.572;2022-12-07T03:01:12;11.50;;;4.36;;
15516;SDS011;7860;52.030;5.572;2022-12-07T03:02:14;13.69;;;4.53;;
15516;SDS011;7860;52.030;5.572;2022-12-07T03:03:12;11.03;;;4.34;;
15516;SDS011;7860;52.030;5.572;2022-12-07T03:04:14;15.10;;;4.42;;
15516;SDS011;7860;52.030;5.572;2022-12-07T03:05:18;13.81;;;4.35;;
15516;SDS011;7860;52.030;5.572;2022-12-07T03:06:16;11.16;;;4.05;;
15516;SDS011;7860;52.030;5.572;2022-12-07T03:07:17;11.53;;;4.27;;
15516;SDS011;7860;52.030;5.572;2022-12-07T03:08:18;13.81;;;4.38;;
15516;SDS011;7860;52.030;5.572;2022-12-07T03:09:18;11.18;;;4.31;;
15516;SDS011;7860;52.030;5.572;2022-12-07T03:10:18;14.10;;;4.28;;
15516;SDS011;7860;52.030;5.572;2022-12-07T03:11:19;12.16;;;4.19;;
15516;SDS011;7860;52.030;5.572;2022-12-07T03:12:18;13.13;;;4.36;;
15516;SDS011;7860;52.030;5.572;2022-12-07T03:13:19;11.56;;;3.93;;
15516;SDS011;7860;52.030;5.572;2022-12-07T03:14:19;10.20;;;3.77;;
15516;SDS011;7860;52.030;5.572;2022-12-07T03:15:20;11.75;;;4.11;;
15516;SDS011;7860;52.030;5.572;2022-12-07T03:16:20;11.23;;;4.03;;
15516;SDS011;7860;52.030;5.572;2022-12-07T03:17:20;11.12;;;3.63;;
15516;SDS011;7860;52.030;5.572;2022-12-07T03:18:21;11.39;;;3.87;;
15516;SDS011;7860;52.030;5.572;2022-12-07T03:19:21;12.74;;;3.82;;
15516;SDS011;7860;52.030;5.572;2022-12-07T03:20:21;12.31;;;3.76;;
15516;SDS011;7860;52.030;5.572;2022-12-07T03:21:22;10.37;;;3.65;;
15516;SDS011;7860;52.030;5.572;2022-12-07T03:22:23;12.35;;;3.82;;
15516;SDS011;7860;52.030;5.572;2022-12-07T03:23:23;11.85;;;3.97;;
15516;SDS011;7860;52.030;5.572;2022-12-07T03:24:26;10.35;;;3.84;;
15516;SDS011;7860;52.030;5.572;2022-12-07T03:25:24;10.38;;;3.67;;
15516;SDS011;7860;52.030;5.572;2022-12-07T03:26:27;12.39;;;3.98;;
15516;SDS011;7860;52.030;5.572;2022-12-07T03:27:25;11.29;;;3.46;;
15516;SDS011;7860;52.030;5.572;2022-12-07T03:28:26;11.81;;;3.81;;
15516;SDS011;7860;52.030;5.572;2022-12-07T03:29:26;12.96;;;3.51;;
15516;SDS011;7860;52.030;5.572;2022-12-07T03:30:27;11.45;;;3.66;;
15516;SDS011;7860;52.030;5.572;2022-12-07T03:31:28;12.29;;;4.03;;
15516;SDS011;7860;52.030;5.572;2022-12-07T03:32:27;11.40;;;3.79;;
15516;SDS011;7860;52.030;5.572;2022-12-07T03:33:28;10.97;;;3.52;;
15516;SDS011;7860;52.030;5.572;2022-12-07T03:34:28;12.89;;;3.97;;
15516;SDS011;7860;52.030;5.572;2022-12-07T03:35:29;10.63;;;3.70;;
15516;SDS011;7860;52.030;5.572;2022-12-07T03:36:29;14.56;;;3.77;;
15516;SDS011;7860;52.030;5.572;2022-12-07T03:37:30;11.38;;;4.31;;
15516;SDS011;7860;52.030;5.572;2022-12-07T03:38:30;11.76;;;3.67;;
15516;SDS011;7860;52.030;5.572;2022-12-07T03:39:30;11.47;;;3.79;;
15516;SDS011;7860;52.030;5.572;2022-12-07T03:40:32;13.28;;;3.38;;
15516;SDS011;7860;52.030;5.572;2022-12-07T03:41:31;11.54;;;3.60;;
15516;SDS011;7860;52.030;5.572;2022-12-07T03:42:31;11.34;;;3.51;;
15516;SDS011;7860;52.030;5.572;2022-12-07T03:43:32;12.16;;;3.66;;
15516;SDS011;7860;52.030;5.572;2022-12-07T03:44:33;13.10;;;3.57;;
15516;SDS011;7860;52.030;5.572;2022-12-07T03:45:37;10.86;;;3.63;;
15516;SDS011;7860;52.030;5.572;2022-12-07T03:46:35;11.56;;;3.17;;
15516;SDS011;7860;52.030;5.572;2022-12-07T03:47:34;10.92;;;3.15;;
15516;SDS011;7860;52.030;5.572;2022-12-07T03:48:35;13.50;;;3.27;;
15516;SDS011;7860;52.030;5.572;2022-12-07T03:49:37;10.87;;;3.05;;
15516;SDS011;7860;52.030;5.572;2022-12-07T03:50:38;11.47;;;2.97;;
15516;SDS011;7860;52.030;5.572;2022-12-07T03:51:37;10.12;;;3.29;;
15516;SDS011;7860;52.030;5.572;2022-12-07T03:52:37;10.26;;;3.12;;
15516;SDS011;7860;52.030;5.572;2022-12-07T03:53:37;10.96;;;3.31;;
15516;SDS011;7860;52.030;5.572;2022-12-07T03:54:38;13.32;;;3.32;;
15516;SDS011;7860;52.030;5.572;2022-12-07T03:55:39;11.88;;;3.49;;
15516;SDS011;7860;52.030;5.572;2022-12-07T03:56:37;11.06;;;3.28;;
15516;SDS011;7860;52.030;5.572;2022-12-07T03:57:38;10.70;;;3.07;;
15516;SDS011;7860;52.030;5.572;2022-12-07T03:58:39;10.28;;;3.33;;
15516;SDS011;7860;52.030;5.572;2022-12-07T03:59:39;12.12;;;3.23;;
15516;SDS011;7860;52.030;5.572;2022-12-07T04:00:40;11.96;;;3.12;;
15516;SDS011;7860;52.030;5.572;2022-12-07T04:01:42;12.39;;;3.44;;
15516;SDS011;7860;52.030;5.572;2022-12-07T04:02:41;13.94;;;3.31;;
15516;SDS011;7860;52.030;5.572;2022-12-07T04:03:42;9.80;;;3.22;;
15516;SDS011;7860;52.030;5.572;2022-12-07T04:04:42;11.68;;;3.86;;
15516;SDS011;7860;52.030;5.572;2022-12-07T04:05:43;12.68;;;3.68;;
15516;SDS011;7860;52.030;5.572;2022-12-07T04:06:43;11.47;;;3.67;;
15516;SDS011;7860;52.030;5.572;2022-12-07T04:07:44;12.43;;;3.58;;
15516;SDS011;7860;52.030;5.572;2022-12-07T04:08:45;11.59;;;3.71;;
15516;SDS011;7860;52.030;5.572;2022-12-07T04:09:45;10.39;;;3.60;;
15516;SDS011;7860;52.030;5.572;2022-12-07T04:10:46;12.05;;;3.85;;
15516;SDS011;7860;52.030;5.572;2022-12-07T04:11:46;12.31;;;3.60;;
15516;SDS011;7860;52.030;5.572;2022-12-07T04:12:47;11.72;;;3.34;;
15516;SDS011;7860;52.030;5.572;2022-12-07T04:13:47;14.55;;;4.02;;
15516;SDS011;7860;52.030;5.572;2022-12-07T04:14:47;11.03;;;3.40;;
15516;SDS011;7860;52.030;5.572;2022-12-07T04:15:48;13.62;;;3.83;;
15516;SDS011;7860;52.030;5.572;2022-12-07T04:16:49;12.28;;;3.49;;
15516;SDS011;7860;52.030;5.572;2022-12-07T04:17:49;9.44;;;3.42;;
15516;SDS011;7860;52.030;5.572;2022-12-07T04:18:49;11.67;;;3.71;;
15516;SDS011;7860;52.030;5.572;2022-12-07T04:19:50;12.57;;;3.49;;
15516;SDS011;7860;52.030;5.572;2022-12-07T04:20:51;12.37;;;4.05;;
15516;SDS011;7860;52.030;5.572;2022-12-07T04:21:51;12.90;;;3.62;;
15516;SDS011;7860;52.030;5.572;2022-12-07T04:22:51;10.14;;;3.54;;
15516;SDS011;7860;52.030;5.572;2022-12-07T04:23:52;12.42;;;3.81;;
15516;SDS011;7860;52.030;5.572;2022-12-07T04:24:52;12.71;;;3.54;;
15516;SDS011;7860;52.030;5.572;2022-12-07T04:25:53;10.56;;;3.74;;
15516;SDS011;7860;52.030;5.572;2022-12-07T04:26:54;9.62;;;3.48;;
15516;SDS011;7860;52.030;5.572;2022-12-07T04:27:54;12.02;;;3.54;;
15516;SDS011;7860;52.030;5.572;2022-12-07T04:28:55;9.80;;;3.46;;
15516;SDS011;7860;52.030;5.572;2022-12-07T04:29:55;10.39;;;3.58;;
15516;SDS011;7860;52.030;5.572;2022-12-07T04:30:56;10.21;;;3.26;;
15516;SDS011;7860;52.030;5.572;2022-12-07T04:31:56;9.99;;;3.26;;
15516;SDS011;7860;52.030;5.572;2022-12-07T04:32:57;9.97;;;3.55;;
15516;SDS011;7860;52.030;5.572;2022-12-07T04:33:57;10.80;;;3.35;;
15516;SDS011;7860;52.030;5.572;2022-12-07T04:34:58;10.71;;;3.53;;
15516;SDS011;7860;52.030;5.572;2022-12-07T04:35:58;10.52;;;3.37;;
15516;SDS011;7860;52.030;5.572;2022-12-07T04:36:59;13.77;;;3.66;;
15516;SDS011;7860;52.030;5.572;2022-12-07T04:37:59;10.49;;;3.50;;
15516;SDS011;7860;52.030;5.572;2022-12-07T04:39:00;12.31;;;3.41;;
15516;SDS011;7860;52.030;5.572;2022-12-07T04:40:00;11.75;;;3.80;;
15516;SDS011;7860;52.030;5.572;2022-12-07T04:41:04;8.75;;;3.00;;
15516;SDS011;7860;52.030;5.572;2022-12-07T04:42:02;9.76;;;3.20;;
15516;SDS011;7860;52.030;5.572;2022-12-07T04:43:02;10.00;;;2.96;;
15516;SDS011;7860;52.030;5.572;2022-12-07T04:44:03;10.40;;;3.23;;
15516;SDS011;7860;52.030;5.572;2022-12-07T04:45:03;11.59;;;3.34;;
15516;SDS011;7860;52.030;5.572;2022-12-07T04:46:04;11.85;;;3.46;;
15516;SDS011;7860;52.030;5.572;2022-12-07T04:47:05;16.08;;;3.48;;
15516;SDS011;7860;52.030;5.572;2022-12-07T04:48:06;12.00;;;3.36;;
15516;SDS011;7860;52.030;5.572;2022-12-07T04:49:07;9.39;;;2.92;;
15516;SDS011;7860;52.030;5.572;2022-12-07T04:50:08;12.12;;;3.34;;
15516;SDS011;7860;52.030;5.572;2022-12-07T04:51:08;10.92;;;3.24;;
15516;SDS011;7860;52.030;5.572;2022-12-07T04:52:09;11.71;;;3.49;;
15516;SDS011;7860;52.030;5.572;2022-12-07T04:53:09;9.77;;;3.17;;
15516;SDS011;7860;52.030;5.572;2022-12-07T04:54:10;11.73;;;3.35;;
15516;SDS011;7860;52.030;5.572;2022-12-07T04:55:11;10.13;;;3.23;;
15516;SDS011;7860;52.030;5.572;2022-12-07T04:56:12;12.23;;;3.57;;
15516;SDS011;7860;52.030;5.572;2022-12-07T04:57:12;13.87;;;3.68;;
15516;SDS011;7860;52.030;5.572;2022-12-07T04:58:13;14.78;;;3.86;;
15516;SDS011;7860;52.030;5.572;2022-12-07T04:59:14;11.22;;;3.24;;
15516;SDS011;7860;52.030;5.572;2022-12-07T05:00:14;9.73;;;3.02;;
15516;SDS011;7860;52.030;5.572;2022-12-07T05:01:15;11.13;;;3.27;;
15516;SDS011;7860;52.030;5.572;2022-12-07T05:02:15;14.44;;;3.74;;
15516;SDS011;7860;52.030;5.572;2022-12-07T05:03:16;10.74;;;3.35;;
15516;SDS011;7860;52.030;5.572;2022-12-07T05:04:16;11.65;;;3.38;;
15516;SDS011;7860;52.030;5.572;2022-12-07T05:05:17;9.38;;;3.09;;
15516;SDS011;7860;52.030;5.572;2022-12-07T05:06:18;12.45;;;3.43;;
15516;SDS011;7860;52.030;5.572;2022-12-07T05:07:18;9.80;;;3.07;;
15516;SDS011;7860;52.030;5.572;2022-12-07T05:08:19;10.17;;;3.08;;
15516;SDS011;7860;52.030;5.572;2022-12-07T05:09:19;14.66;;;3.10;;
15516;SDS011;7860;52.030;5.572;2022-12-07T05:10:20;10.87;;;2.78;;
15516;SDS011;7860;52.030;5.572;2022-12-07T05:11:21;9.44;;;2.97;;
15516;SDS011;7860;52.030;5.572;2022-12-07T05:12:21;10.40;;;2.93;;
15516;SDS011;7860;52.030;5.572;2022-12-07T05:13:22;11.54;;;2.92;;
15516;SDS011;7860;52.030;5.572;2022-12-07T05:14:22;9.91;;;2.54;;
15516;SDS011;7860;52.030;5.572;2022-12-07T05:15:23;13.65;;;2.92;;
15516;SDS011;7860;52.030;5.572;2022-12-07T05:16:23;12.11;;;2.78;;
15516;SDS011;7860;52.030;5.572;2022-12-07T05:17:23;8.87;;;2.56;;
15516;SDS011;7860;52.030;5.572;2022-12-07T05:18:24;11.47;;;2.74;;
15516;SDS011;7860;52.030;5.572;2022-12-07T05:19:24;11.63;;;2.92;;
15516;SDS011;7860;52.030;5.572;2022-12-07T05:20:25;11.04;;;2.46;;
15516;SDS011;7860;52.030;5.572;2022-12-07T05:21:26;11.44;;;2.47;;
15516;SDS011;7860;52.030;5.572;2022-12-07T05:22:26;11.36;;;2.74;;
15516;SDS011;7860;52.030;5.572;2022-12-07T05:23:27;7.64;;;2.44;;
15516;SDS011;7860;52.030;5.572;2022-12-07T05:24:27;9.55;;;2.50;;
15516;SDS011;7860;52.030;5.572;2022-12-07T05:25:28;11.40;;;2.73;;
15516;SDS011;7860;52.030;5.572;2022-12-07T05:26:29;11.47;;;2.90;;
15516;SDS011;7860;52.030;5.572;2022-12-07T05:27:29;9.84;;;2.72;;
15516;SDS011;7860;52.030;5.572;2022-12-07T05:28:30;8.03;;;2.52;;
15516;SDS011;7860;52.030;5.572;2022-12-07T05:29:30;8.81;;;2.63;;
15516;SDS011;7860;52.030;5.572;2022-12-07T05:30:31;9.94;;;2.91;;
15516;SDS011;7860;52.030;5.572;2022-12-07T05:31:31;9.12;;;2.64;;
15516;SDS011;7860;52.030;5.572;2022-12-07T05:32:32;10.72;;;2.79;;
15516;SDS011;7860;52.030;5.572;2022-12-07T05:33:33;11.69;;;2.86;;
15516;SDS011;7860;52.030;5.572;2022-12-07T05:34:33;11.67;;;2.80;;
15516;SDS011;7860;52.030;5.572;2022-12-07T05:35:33;9.26;;;2.74;;
15516;SDS011;7860;52.030;5.572;2022-12-07T05:36:33;11.67;;;3.18;;
15516;SDS011;7860;52.030;5.572;2022-12-07T05:37:34;11.13;;;2.59;;
15516;SDS011;7860;52.030;5.572;2022-12-07T05:38:34;10.80;;;2.73;;
15516;SDS011;7860;52.030;5.572;2022-12-07T05:39:35;12.04;;;2.60;;
15516;SDS011;7860;52.030;5.572;2022-12-07T05:40:36;10.74;;;2.81;;
15516;SDS011;7860;52.030;5.572;2022-12-07T05:41:36;11.39;;;2.75;;
15516;SDS011;7860;52.030;5.572;2022-12-07T05:42:37;10.81;;;2.92;;
15516;SDS011;7860;52.030;5.572;2022-12-07T05:43:37;8.83;;;2.58;;
15516;SDS011;7860;52.030;5.572;2022-12-07T05:44:38;11.24;;;2.80;;
15516;SDS011;7860;52.030;5.572;2022-12-07T05:45:38;9.79;;;2.63;;
15516;SDS011;7860;52.030;5.572;2022-12-07T05:46:39;10.83;;;2.85;;
15516;SDS011;7860;52.030;5.572;2022-12-07T05:47:39;9.70;;;2.82;;
15516;SDS011;7860;52.030;5.572;2022-12-07T05:48:40;10.62;;;2.76;;
15516;SDS011;7860;52.030;5.572;2022-12-07T05:49:40;11.76;;;2.54;;
15516;SDS011;7860;52.030;5.572;2022-12-07T05:50:41;11.68;;;2.55;;
15516;SDS011;7860;52.030;5.572;2022-12-07T05:51:42;11.24;;;2.71;;
15516;SDS011;7860;52.030;5.572;2022-12-07T05:52:42;8.58;;;2.39;;
15516;SDS011;7860;52.030;5.572;2022-12-07T05:53:42;8.14;;;2.48;;
15516;SDS011;7860;52.030;5.572;2022-12-07T05:54:43;11.60;;;2.76;;
15516;SDS011;7860;52.030;5.572;2022-12-07T05:55:43;7.64;;;2.67;;
15516;SDS011;7860;52.030;5.572;2022-12-07T05:56:43;11.80;;;2.96;;
15516;SDS011;7860;52.030;5.572;2022-12-07T05:57:44;8.82;;;2.61;;
15516;SDS011;7860;52.030;5.572;2022-12-07T05:58:44;11.95;;;3.00;;
15516;SDS011;7860;52.030;5.572;2022-12-07T05:59:45;12.25;;;2.89;;
15516;SDS011;7860;52.030;5.572;2022-12-07T06:00:45;8.44;;;2.55;;
15516;SDS011;7860;52.030;5.572;2022-12-07T06:01:46;8.85;;;2.48;;
15516;SDS011;7860;52.030;5.572;2022-12-07T06:02:46;10.59;;;2.93;;
15516;SDS011;7860;52.030;5.572;2022-12-07T06:03:47;9.08;;;2.71;;
15516;SDS011;7860;52.030;5.572;2022-12-07T06:04:47;11.19;;;2.74;;
15516;SDS011;7860;52.030;5.572;2022-12-07T06:05:48;10.06;;;2.76;;